Thursday, September 20, 2018, 8:39 AM EDT
Back to Local

KUNV, State College, University Park Airport

Location: State College, PA, United States Lat: 40.85
Local Time: 8:39 AM EDT (12:39 GMT) Lon: -77.85
Time Zone: US/Eastern Elev: 1240 ft

Show me the last for .
Show Decoded

2018-09-20 07:53 METAR KUNV 201153Z 00000KT 7SM BCFG SCT008 SCT035 15/15 A3019 =
2018-09-20 06:53 METAR KUNV 201053Z 00000KT 7SM BCFG SCT008 SCT035 14/14 A3018 =
2018-09-20 05:53 METAR KUNV 200953Z 00000KT 7SM FEW008 SCT060 14/14 A3015 =
2018-09-20 05:35 METAR KUNV 200935Z AUTO 00000KT 10SM SCT070 BKN095 15/14 A3015 RMK AO2 T01450143
                 =
2018-09-20 05:15 METAR KUNV 200915Z AUTO 00000KT 10SM SCT060 SCT080 BKN095 15/15 A3013 RMK AO2
                 T01450145 =
2018-09-20 04:55 METAR KUNV 200855Z AUTO 00000KT 10SM SCT001 SCT055 BKN090 15/15 A3013 RMK AO2
                 T01460146 =
2018-09-20 04:35 METAR KUNV 200835Z AUTO 00000KT 5SM BR BKN001 BKN065 BKN090 15/15 A3012 RMK AO2
                 T01490149 =
2018-09-20 04:15 METAR KUNV 200815Z AUTO 04003KT 4SM BR OVC001 15/15 A3013 RMK AO2 T01500150 =
2018-09-20 03:55 METAR KUNV 200755Z AUTO 05004KT 5SM BR BKN001 OVC049 15/15 A3012 RMK AO2
                 T01520152 =
2018-09-20 03:35 METAR KUNV 200735Z AUTO 04003KT 7SM SCT001 SCT049 BKN090 15/15 A3012 RMK AO2
                 T01540154 =
2018-09-20 03:15 METAR KUNV 200715Z AUTO 05003KT 5SM BR BKN001 BKN060 BKN080 15/15 A3012 RMK AO2
                 T01530153 =
2018-09-20 02:55 METAR KUNV 200655Z AUTO 05003KT 10SM SCT001 SCT060 SCT080 15/15 A3012 RMK AO2
                 T01530153 =
2018-09-20 02:35 METAR KUNV 200635Z AUTO 03004KT 7SM BKN001 BKN050 BKN065 16/16 A3012 RMK AO2
                 T01590159 =
2018-09-20 02:15 METAR KUNV 200615Z AUTO 04005KT 1/2SM FG OVC001 16/16 A3012 RMK AO2 T01600160 =
2018-09-20 01:55 METAR KUNV 200555Z AUTO 03005KT 1 1/4SM BR BKN001 16/16 A3012 RMK AO2 T01620162
                 10211 20162 =
2018-09-20 01:35 METAR KUNV 200535Z AUTO 04003KT 1 3/4SM BR BKN001 BKN065 BKN085 17/16 A3012 RMK
                 AO2 VIS 3/4V5 T01650163 =
2018-09-20 01:15 METAR KUNV 200515Z AUTO 01003KT 10SM SCT085 17/17 A3012 RMK AO2 T01710168 =
2018-09-20 00:55 METAR KUNV 200455Z AUTO 02004KT 10SM SCT095 17/17 A3012 RMK AO2 T01710166 =
2018-09-20 00:35 METAR KUNV 200435Z AUTO 00000KT 10SM SCT085 17/17 A3012 RMK AO2 T01720168 =
2018-09-20 00:15 METAR KUNV 200415Z AUTO 00000KT 10SM SCT065 SCT075 SCT095 17/17 A3012 RMK AO2
                 T01700167 =
2018-09-19 23:55 METAR KUNV 200355Z AUTO 00000KT 10SM SCT070 SCT080 BKN095 18/17 A3011 RMK AO2
                 T01800170 402710176 =
2018-09-19 23:35 METAR KUNV 200335Z AUTO 02004KT 10SM SCT070 SCT095 18/17 A3011 RMK AO2 T01810171
                 =
2018-09-19 23:15 METAR KUNV 200315Z AUTO 02004KT 10SM SCT095 18/17 A3011 RMK AO2 T01840173 =
2018-09-19 22:55 METAR KUNV 200255Z AUTO 36004KT 10SM SCT070 SCT095 19/18 A3010 RMK AO2 T01860175
                 =
2018-09-19 22:35 METAR KUNV 200235Z AUTO 01003KT 10SM SCT065 SCT080 SCT095 19/18 A3010 RMK AO2
                 T01900175 =
2018-09-19 22:15 METAR KUNV 200215Z AUTO 02005KT 10SM SCT080 SCT090 19/18 A3009 RMK AO2 T01920177
                 =
2018-09-19 21:53 METAR KUNV 200153Z 00000KT 10SM SKC 19/18 A3009 =
2018-09-19 20:53 METAR KUNV 200053Z 02004KT 10SM SCT060 20/17 A3008 =
2018-09-19 19:53 METAR KUNV 192353Z 05005KT 10SM SCT045 21/18 A3005 =
2018-09-19 18:53 METAR KUNV 192253Z 04004KT 10SM SCT050 23/19 A3003 =
2018-09-19 17:53 METAR KUNV 192153Z 05005KT 10SM SCT050 24/19 A3001 =
2018-09-19 16:53 METAR KUNV 192053Z 02005KT 10SM SCT043 26/17 A3000 =
2018-09-19 15:53 METAR KUNV 191953Z 00000KT 10SM SCT043 26/18 A3000 =
2018-09-19 14:53 METAR KUNV 191853Z 00000KT 10SM SCT043 25/18 A3001 =
2018-09-19 13:53 METAR KUNV 191753Z 00000KT 10SM FEW030 25/18 A3001 =
2018-09-19 12:53 METAR KUNV 191653Z 34004KT 10SM FEW030 SCT100 25/18 A3002 =
2018-09-19 11:53 METAR KUNV 191553Z 34006KT 10SM SCT030 SCT090 23/17 A3003 =
2018-09-19 10:53 METAR KUNV 191453Z 36006KT 10SM SCT025 23/18 A3003 =
2018-09-19 09:53 METAR KUNV 191353Z 28004KT 10SM SCT020 BKN045 22/19 A3000 =
2018-09-19 08:53 METAR KUNV 191253Z 29006KT 7SM FEW015 SCT100 20/19 A3000 =

Support USWX by starting your Amazon purchase here.